Portland Hillsboro Airport
KHIO : now visible

Airfield :











YOU CAN JOIN US ON...

 
LOGIN :

Register | Disclaimer

   EN    FR    IT 

 









Legend :    VFR   Marginal VFR   IFR   Intensive IFR   Very Intensive IFR
Visi :
Ceiling :
>= 8 km
>= 3000ft
5 to 8 km
1000 to 3000 ft
1500m to 5 km
500 to 1000 ft
800 to 1500m
200 to 500 ft
< 800m
< 200 ft
Symbols :   Thunderstorms  Fog  Heavy snow  Heavy precipitations  Wind > 20 kt






- Airport Elevation : 208 ft


KHIO - Portland Hillsboro

CURRENT METAR :
  • 291453Z 34003KT 10SM CLR 18/09 A2995 RMK AO2 SLP137 T01780094 51010

EXPIRED METARs :
  • 291353Z 00000KT 10SM CLR 16/09 A2994 RMK AO2 SLP136 T01560094
  • 291253Z 00000KT 10SM CLR 12/08 A2993 RMK AO2 SLP132 T01220078

TAF KHIO
Valid from the 29 at 12:00 until the 30 at 12:00 UTC


291120Z 2912/3012 30004KT P6SM FEW250
FM292300 34008KT P6SM FEW050 BKN200
FM300600 30012KT P6SM OVC200
KZSE FIR / North America



MET'MAP, your aeronautical weather chart ! - Copyright ORBIFLY December 2007 - Disclaimer

ORBIFLY MET'MAP TEAM :

Programming & Development : Alexandra Zaïnal
Concept & original design : Baudouin d'Aumeries
Assistance for programming : Marc-Olivier Méhu
Technical & hardware support : Manuel Goepfert

Contact : metmap@orbifly.com




SOURCES & CREDITS :

   NOAA       Earth
Advisory